sensor_id;sensor_type;location;lat;lon;timestamp;P1;durP1;ratioP1;P2;durP2;ratioP2
52530;SDS011;38441;52.894;6.040;2024-03-02T00:00:19;3.78;;;2.00;;
52530;SDS011;38441;52.894;6.040;2024-03-02T00:02:47;3.28;;;2.03;;
52530;SDS011;38441;52.894;6.040;2024-03-02T00:05:15;2.58;;;1.42;;
52530;SDS011;38441;52.894;6.040;2024-03-02T00:07:42;4.07;;;1.80;;
52530;SDS011;38441;52.894;6.040;2024-03-02T00:10:10;4.75;;;1.50;;
52530;SDS011;38441;52.894;6.040;2024-03-02T00:12:40;3.67;;;1.80;;
52530;SDS011;38441;52.894;6.040;2024-03-02T00:15:06;5.40;;;2.08;;
52530;SDS011;38441;52.894;6.040;2024-03-02T00:18:02;4.50;;;1.65;;
52530;SDS011;38441;52.894;6.040;2024-03-02T00:20:29;4.47;;;1.80;;
52530;SDS011;38441;52.894;6.040;2024-03-02T00:23:14;3.65;;;1.85;;
52530;SDS011;38441;52.894;6.040;2024-03-02T00:25:42;3.17;;;1.40;;
52530;SDS011;38441;52.894;6.040;2024-03-02T00:33:25;5.25;;;1.77;;
52530;SDS011;38441;52.894;6.040;2024-03-02T00:35:52;3.03;;;1.42;;
52530;SDS011;38441;52.894;6.040;2024-03-02T00:38:19;2.80;;;1.65;;
52530;SDS011;38441;52.894;6.040;2024-03-02T00:40:44;3.78;;;1.48;;
52530;SDS011;38441;52.894;6.040;2024-03-02T00:43:14;3.45;;;1.60;;
52530;SDS011;38441;52.894;6.040;2024-03-02T00:46:06;3.72;;;2.05;;
52530;SDS011;38441;52.894;6.040;2024-03-02T00:48:32;4.93;;;1.92;;
52530;SDS011;38441;52.894;6.040;2024-03-02T00:51:00;4.68;;;1.95;;
52530;SDS011;38441;52.894;6.040;2024-03-02T00:53:28;4.30;;;1.83;;
52530;SDS011;38441;52.894;6.040;2024-03-02T00:55:56;5.15;;;1.88;;
52530;SDS011;38441;52.894;6.040;2024-03-02T00:58:34;3.38;;;1.40;;
52530;SDS011;38441;52.894;6.040;2024-03-02T01:00:59;3.15;;;1.70;;
52530;SDS011;38441;52.894;6.040;2024-03-02T01:03:25;3.00;;;1.77;;
52530;SDS011;38441;52.894;6.040;2024-03-02T01:05:51;2.60;;;1.23;;
52530;SDS011;38441;52.894;6.040;2024-03-02T01:08:17;3.17;;;1.50;;
52530;SDS011;38441;52.894;6.040;2024-03-02T01:10:43;3.33;;;1.67;;
52530;SDS011;38441;52.894;6.040;2024-03-02T01:13:09;3.85;;;1.50;;
52530;SDS011;38441;52.894;6.040;2024-03-02T01:15:35;3.00;;;1.55;;
52530;SDS011;38441;52.894;6.040;2024-03-02T01:18:01;4.07;;;1.60;;
52530;SDS011;38441;52.894;6.040;2024-03-02T01:20:26;2.90;;;1.58;;
52530;SDS011;38441;52.894;6.040;2024-03-02T01:22:52;5.05;;;1.50;;
52530;SDS011;38441;52.894;6.040;2024-03-02T01:25:18;4.47;;;2.20;;
52530;SDS011;38441;52.894;6.040;2024-03-02T01:27:44;3.47;;;1.60;;
52530;SDS011;38441;52.894;6.040;2024-03-02T01:30:10;3.08;;;1.60;;
52530;SDS011;38441;52.894;6.040;2024-03-02T01:32:37;4.05;;;1.58;;
52530;SDS011;38441;52.894;6.040;2024-03-02T01:35:04;2.65;;;1.17;;
52530;SDS011;38441;52.894;6.040;2024-03-02T01:37:30;2.88;;;1.38;;
52530;SDS011;38441;52.894;6.040;2024-03-02T01:39:56;4.00;;;1.52;;
52530;SDS011;38441;52.894;6.040;2024-03-02T01:42:22;2.63;;;1.30;;
52530;SDS011;38441;52.894;6.040;2024-03-02T01:44:47;3.65;;;1.63;;
52530;SDS011;38441;52.894;6.040;2024-03-02T01:47:13;4.22;;;1.30;;
52530;SDS011;38441;52.894;6.040;2024-03-02T01:49:39;2.65;;;1.40;;
52530;SDS011;38441;52.894;6.040;2024-03-02T01:52:06;2.90;;;1.30;;
52530;SDS011;38441;52.894;6.040;2024-03-02T01:54:32;3.97;;;1.80;;
52530;SDS011;38441;52.894;6.040;2024-03-02T01:56:58;3.08;;;1.63;;
52530;SDS011;38441;52.894;6.040;2024-03-02T01:59:24;3.35;;;1.40;;
52530;SDS011;38441;52.894;6.040;2024-03-02T02:01:50;2.63;;;1.50;;
52530;SDS011;38441;52.894;6.040;2024-03-02T02:04:16;3.10;;;1.45;;
52530;SDS011;38441;52.894;6.040;2024-03-02T02:06:43;3.22;;;1.45;;
52530;SDS011;38441;52.894;6.040;2024-03-02T02:09:09;4.30;;;1.50;;
52530;SDS011;38441;52.894;6.040;2024-03-02T02:11:35;3.50;;;1.50;;
52530;SDS011;38441;52.894;6.040;2024-03-02T02:14:01;3.88;;;1.38;;
52530;SDS011;38441;52.894;6.040;2024-03-02T02:16:26;6.07;;;1.40;;
52530;SDS011;38441;52.894;6.040;2024-03-02T02:18:52;2.97;;;1.20;;
52530;SDS011;38441;52.894;6.040;2024-03-02T02:21:22;2.38;;;1.13;;
52530;SDS011;38441;52.894;6.040;2024-03-02T02:23:48;2.10;;;1.05;;
52530;SDS011;38441;52.894;6.040;2024-03-02T02:26:13;3.35;;;1.00;;
52530;SDS011;38441;52.894;6.040;2024-03-02T02:28:39;3.30;;;1.27;;
52530;SDS011;38441;52.894;6.040;2024-03-02T02:31:12;4.22;;;1.45;;
52530;SDS011;38441;52.894;6.040;2024-03-02T02:33:40;3.33;;;1.10;;
52530;SDS011;38441;52.894;6.040;2024-03-02T02:36:06;3.05;;;1.05;;
52530;SDS011;38441;52.894;6.040;2024-03-02T02:38:32;2.63;;;1.00;;
52530;SDS011;38441;52.894;6.040;2024-03-02T02:41:00;3.33;;;1.13;;
52530;SDS011;38441;52.894;6.040;2024-03-02T02:43:26;3.70;;;1.20;;
52530;SDS011;38441;52.894;6.040;2024-03-02T02:45:51;2.72;;;1.17;;
52530;SDS011;38441;52.894;6.040;2024-03-02T02:48:17;3.38;;;1.23;;
52530;SDS011;38441;52.894;6.040;2024-03-02T02:50:42;3.50;;;1.00;;
52530;SDS011;38441;52.894;6.040;2024-03-02T02:53:08;2.67;;;1.00;;
52530;SDS011;38441;52.894;6.040;2024-03-02T02:55:35;2.35;;;1.10;;
52530;SDS011;38441;52.894;6.040;2024-03-02T02:58:05;3.10;;;0.82;;
52530;SDS011;38441;52.894;6.040;2024-03-02T03:00:31;2.22;;;1.13;;
52530;SDS011;38441;52.894;6.040;2024-03-02T03:02:57;2.45;;;0.93;;
52530;SDS011;38441;52.894;6.040;2024-03-02T03:05:23;2.15;;;1.00;;
52530;SDS011;38441;52.894;6.040;2024-03-02T03:07:49;1.77;;;0.70;;
52530;SDS011;38441;52.894;6.040;2024-03-02T03:10:15;2.25;;;0.73;;
52530;SDS011;38441;52.894;6.040;2024-03-02T03:12:42;1.63;;;0.90;;
52530;SDS011;38441;52.894;6.040;2024-03-02T03:15:08;2.63;;;0.80;;
52530;SDS011;38441;52.894;6.040;2024-03-02T03:17:35;1.98;;;0.88;;
52530;SDS011;38441;52.894;6.040;2024-03-02T03:20:02;1.50;;;0.80;;
52530;SDS011;38441;52.894;6.040;2024-03-02T03:22:29;2.08;;;1.05;;
52530;SDS011;38441;52.894;6.040;2024-03-02T03:24:56;2.13;;;0.70;;
52530;SDS011;38441;52.894;6.040;2024-03-02T03:27:22;2.50;;;0.95;;
52530;SDS011;38441;52.894;6.040;2024-03-02T03:29:47;2.90;;;0.90;;
52530;SDS011;38441;52.894;6.040;2024-03-02T03:32:13;1.65;;;0.82;;
52530;SDS011;38441;52.894;6.040;2024-03-02T03:34:39;2.25;;;1.00;;
52530;SDS011;38441;52.894;6.040;2024-03-02T03:37:05;3.15;;;1.00;;
52530;SDS011;38441;52.894;6.040;2024-03-02T03:39:31;2.80;;;1.30;;
52530;SDS011;38441;52.894;6.040;2024-03-02T03:41:58;2.67;;;1.00;;
52530;SDS011;38441;52.894;6.040;2024-03-02T03:44:24;2.92;;;1.27;;
52530;SDS011;38441;52.894;6.040;2024-03-02T03:46:50;2.88;;;1.20;;
52530;SDS011;38441;52.894;6.040;2024-03-02T03:49:15;2.65;;;1.10;;
52530;SDS011;38441;52.894;6.040;2024-03-02T03:51:42;3.58;;;1.38;;
52530;SDS011;38441;52.894;6.040;2024-03-02T03:54:08;3.45;;;1.35;;
52530;SDS011;38441;52.894;6.040;2024-03-02T03:56:33;2.85;;;1.15;;
52530;SDS011;38441;52.894;6.040;2024-03-02T03:58:59;2.60;;;1.13;;
52530;SDS011;38441;52.894;6.040;2024-03-02T04:01:25;1.75;;;0.80;;
52530;SDS011;38441;52.894;6.040;2024-03-02T04:03:50;2.63;;;0.77;;
52530;SDS011;38441;52.894;6.040;2024-03-02T04:06:16;3.00;;;0.70;;
52530;SDS011;38441;52.894;6.040;2024-03-02T04:08:42;1.80;;;0.63;;
52530;SDS011;38441;52.894;6.040;2024-03-02T04:11:09;1.27;;;0.60;;
52530;SDS011;38441;52.894;6.040;2024-03-02T04:13:36;2.72;;;0.70;;
52530;SDS011;38441;52.894;6.040;2024-03-02T04:16:01;1.92;;;0.70;;
52530;SDS011;38441;52.894;6.040;2024-03-02T04:18:28;2.03;;;0.60;;
52530;SDS011;38441;52.894;6.040;2024-03-02T04:20:54;1.45;;;0.50;;
52530;SDS011;38441;52.894;6.040;2024-03-02T04:23:20;2.35;;;0.50;;
52530;SDS011;38441;52.894;6.040;2024-03-02T04:25:46;0.93;;;0.40;;
52530;SDS011;38441;52.894;6.040;2024-03-02T04:28:11;2.58;;;0.50;;
52530;SDS011;38441;52.894;6.040;2024-03-02T04:30:37;1.92;;;0.60;;
52530;SDS011;38441;52.894;6.040;2024-03-02T04:33:03;0.50;;;0.38;;
52530;SDS011;38441;52.894;6.040;2024-03-02T04:35:30;1.15;;;0.55;;
52530;SDS011;38441;52.894;6.040;2024-03-02T04:37:56;3.55;;;0.70;;
52530;SDS011;38441;52.894;6.040;2024-03-02T04:40:22;1.05;;;0.30;;
52530;SDS011;38441;52.894;6.040;2024-03-02T04:42:47;1.13;;;0.40;;
52530;SDS011;38441;52.894;6.040;2024-03-02T04:45:13;1.13;;;0.20;;
52530;SDS011;38441;52.894;6.040;2024-03-02T04:47:39;0.93;;;0.30;;
52530;SDS011;38441;52.894;6.040;2024-03-02T04:50:04;0.70;;;0.20;;
52530;SDS011;38441;52.894;6.040;2024-03-02T04:52:32;0.52;;;0.10;;
52530;SDS011;38441;52.894;6.040;2024-03-02T04:54:58;1.33;;;0.20;;
52530;SDS011;38441;52.894;6.040;2024-03-02T04:57:56;0.40;;;0.10;;
52530;SDS011;38441;52.894;6.040;2024-03-02T05:00:21;0.40;;;0.20;;
52530;SDS011;38441;52.894;6.040;2024-03-02T05:02:47;0.65;;;0.20;;
52530;SDS011;38441;52.894;6.040;2024-03-02T05:05:13;0.68;;;0.20;;
52530;SDS011;38441;52.894;6.040;2024-03-02T05:07:42;0.40;;;0.20;;
52530;SDS011;38441;52.894;6.040;2024-03-02T05:10:09;1.77;;;0.30;;
52530;SDS011;38441;52.894;6.040;2024-03-02T05:12:36;0.57;;;0.30;;
52530;SDS011;38441;52.894;6.040;2024-03-02T05:15:11;0.93;;;0.20;;
52530;SDS011;38441;52.894;6.040;2024-03-02T05:17:41;1.30;;;0.20;;
52530;SDS011;38441;52.894;6.040;2024-03-02T05:20:11;1.40;;;0.20;;
52530;SDS011;38441;52.894;6.040;2024-03-02T05:22:37;1.20;;;0.20;;
52530;SDS011;38441;52.894;6.040;2024-03-02T05:25:03;0.90;;;0.17;;
52530;SDS011;38441;52.894;6.040;2024-03-02T05:27:29;0.47;;;0.28;;
52530;SDS011;38441;52.894;6.040;2024-03-02T05:29:56;0.60;;;0.30;;
52530;SDS011;38441;52.894;6.040;2024-03-02T05:32:22;0.68;;;0.20;;
52530;SDS011;38441;52.894;6.040;2024-03-02T05:34:48;0.32;;;0.20;;
52530;SDS011;38441;52.894;6.040;2024-03-02T05:37:15;0.85;;;0.30;;
52530;SDS011;38441;52.894;6.040;2024-03-02T05:39:41;0.40;;;0.20;;
52530;SDS011;38441;52.894;6.040;2024-03-02T05:42:08;0.55;;;0.32;;
52530;SDS011;38441;52.894;6.040;2024-03-02T05:44:34;0.90;;;0.30;;
52530;SDS011;38441;52.894;6.040;2024-03-02T05:47:03;0.50;;;0.20;;
52530;SDS011;38441;52.894;6.040;2024-03-02T05:49:29;0.80;;;0.17;;
52530;SDS011;38441;52.894;6.040;2024-03-02T05:51:55;2.47;;;0.30;;
52530;SDS011;38441;52.894;6.040;2024-03-02T05:54:21;0.52;;;0.30;;
52530;SDS011;38441;52.894;6.040;2024-03-02T05:56:47;3.00;;;0.30;;
52530;SDS011;38441;52.894;6.040;2024-03-02T05:59:12;0.63;;;0.20;;
52530;SDS011;38441;52.894;6.040;2024-03-02T06:01:41;0.43;;;0.25;;
52530;SDS011;38441;52.894;6.040;2024-03-02T06:04:08;1.45;;;0.30;;
52530;SDS011;38441;52.894;6.040;2024-03-02T06:06:38;1.13;;;0.30;;
52530;SDS011;38441;52.894;6.040;2024-03-02T06:09:04;0.57;;;0.30;;
52530;SDS011;38441;52.894;6.040;2024-03-02T06:11:33;0.50;;;0.20;;
52530;SDS011;38441;52.894;6.040;2024-03-02T06:14:14;1.50;;;0.25;;
52530;SDS011;38441;52.894;6.040;2024-03-02T06:16:40;1.48;;;0.20;;
52530;SDS011;38441;52.894;6.040;2024-03-02T06:19:05;0.70;;;0.25;;
52530;SDS011;38441;52.894;6.040;2024-03-02T06:21:32;3.53;;;0.30;;
52530;SDS011;38441;52.894;6.040;2024-03-02T06:23:58;0.38;;;0.20;;
52530;SDS011;38441;52.894;6.040;2024-03-02T06:26:24;1.15;;;0.30;;
52530;SDS011;38441;52.894;6.040;2024-03-02T06:28:50;0.65;;;0.25;;
52530;SDS011;38441;52.894;6.040;2024-03-02T06:31:16;1.23;;;0.40;;
52530;SDS011;38441;52.894;6.040;2024-03-02T06:33:42;0.90;;;0.28;;
52530;SDS011;38441;52.894;6.040;2024-03-02T06:36:08;0.85;;;0.20;;
52530;SDS011;38441;52.894;6.040;2024-03-02T06:38:37;0.85;;;0.22;;
52530;SDS011;38441;52.894;6.040;2024-03-02T06:41:05;0.50;;;0.30;;
52530;SDS011;38441;52.894;6.040;2024-03-02T06:43:31;1.15;;;0.40;;
52530;SDS011;38441;52.894;6.040;2024-03-02T06:45:56;1.15;;;0.20;;
52530;SDS011;38441;52.894;6.040;2024-03-02T06:48:22;1.95;;;0.40;;
52530;SDS011;38441;52.894;6.040;2024-03-02T06:50:49;0.77;;;0.30;;
52530;SDS011;38441;52.894;6.040;2024-03-02T06:53:17;0.52;;;0.20;;
52530;SDS011;38441;52.894;6.040;2024-03-02T06:55:44;0.60;;;0.20;;
52530;SDS011;38441;52.894;6.040;2024-03-02T06:58:13;1.60;;;0.32;;
52530;SDS011;38441;52.894;6.040;2024-03-02T07:00:42;1.95;;;0.43;;
52530;SDS011;38441;52.894;6.040;2024-03-02T07:03:09;1.35;;;0.30;;
52530;SDS011;38441;52.894;6.040;2024-03-02T07:05:35;0.80;;;0.30;;
52530;SDS011;38441;52.894;6.040;2024-03-02T07:08:01;0.70;;;0.20;;
52530;SDS011;38441;52.894;6.040;2024-03-02T07:10:28;1.70;;;0.30;;
52530;SDS011;38441;52.894;6.040;2024-03-02T07:12:54;1.23;;;0.30;;
52530;SDS011;38441;52.894;6.040;2024-03-02T07:15:20;1.63;;;0.38;;
52530;SDS011;38441;52.894;6.040;2024-03-02T07:18:04;1.48;;;0.38;;
52530;SDS011;38441;52.894;6.040;2024-03-02T07:20:30;1.27;;;0.60;;
52530;SDS011;38441;52.894;6.040;2024-03-02T07:22:56;1.08;;;0.57;;
52530;SDS011;38441;52.894;6.040;2024-03-02T07:25:21;3.40;;;1.10;;
52530;SDS011;38441;52.894;6.040;2024-03-02T07:27:47;2.22;;;0.90;;
52530;SDS011;38441;52.894;6.040;2024-03-02T07:30:13;2.95;;;0.70;;
52530;SDS011;38441;52.894;6.040;2024-03-02T07:32:41;1.83;;;0.60;;
52530;SDS011;38441;52.894;6.040;2024-03-02T07:35:10;2.78;;;0.68;;
52530;SDS011;38441;52.894;6.040;2024-03-02T07:37:39;2.75;;;0.65;;
52530;SDS011;38441;52.894;6.040;2024-03-02T07:40:06;2.00;;;0.50;;
52530;SDS011;38441;52.894;6.040;2024-03-02T07:42:34;0.60;;;0.30;;
52530;SDS011;38441;52.894;6.040;2024-03-02T07:45:00;1.00;;;0.40;;
52530;SDS011;38441;52.894;6.040;2024-03-02T07:47:26;1.13;;;0.40;;
52530;SDS011;38441;52.894;6.040;2024-03-02T07:49:52;1.15;;;0.40;;
52530;SDS011;38441;52.894;6.040;2024-03-02T07:52:18;1.92;;;0.80;;
52530;SDS011;38441;52.894;6.040;2024-03-02T07:54:43;3.38;;;0.77;;
52530;SDS011;38441;52.894;6.040;2024-03-02T07:57:09;3.75;;;1.00;;
52530;SDS011;38441;52.894;6.040;2024-03-02T07:59:35;4.35;;;1.55;;
52530;SDS011;38441;52.894;6.040;2024-03-02T08:02:01;4.80;;;2.28;;
52530;SDS011;38441;52.894;6.040;2024-03-02T08:04:27;7.20;;;3.58;;
52530;SDS011;38441;52.894;6.040;2024-03-02T08:06:53;11.63;;;4.10;;
52530;SDS011;38441;52.894;6.040;2024-03-02T08:09:19;12.73;;;4.93;;
52530;SDS011;38441;52.894;6.040;2024-03-02T08:11:45;10.60;;;4.32;;
52530;SDS011;38441;52.894;6.040;2024-03-02T08:14:10;12.10;;;5.45;;
52530;SDS011;38441;52.894;6.040;2024-03-02T08:16:36;9.45;;;4.53;;
52530;SDS011;38441;52.894;6.040;2024-03-02T08:19:02;9.88;;;3.80;;
52530;SDS011;38441;52.894;6.040;2024-03-02T08:21:28;8.73;;;3.45;;
52530;SDS011;38441;52.894;6.040;2024-03-02T08:23:57;5.80;;;2.83;;
52530;SDS011;38441;52.894;6.040;2024-03-02T08:26:23;5.57;;;1.95;;
52530;SDS011;38441;52.894;6.040;2024-03-02T08:28:49;4.03;;;1.10;;
52530;SDS011;38441;52.894;6.040;2024-03-02T08:31:15;4.80;;;0.88;;
52530;SDS011;38441;52.894;6.040;2024-03-02T08:33:40;2.65;;;0.70;;
52530;SDS011;38441;52.894;6.040;2024-03-02T08:36:06;2.47;;;0.68;;
52530;SDS011;38441;52.894;6.040;2024-03-02T08:38:34;2.65;;;0.88;;
52530;SDS011;38441;52.894;6.040;2024-03-02T08:41:00;1.88;;;0.65;;
52530;SDS011;38441;52.894;6.040;2024-03-02T08:43:28;4.55;;;1.00;;
52530;SDS011;38441;52.894;6.040;2024-03-02T08:45:54;3.00;;;0.80;;
52530;SDS011;38441;52.894;6.040;2024-03-02T08:48:20;2.28;;;0.98;;
52530;SDS011;38441;52.894;6.040;2024-03-02T08:50:46;3.20;;;0.63;;
52530;SDS011;38441;52.894;6.040;2024-03-02T08:53:12;3.28;;;0.70;;
52530;SDS011;38441;52.894;6.040;2024-03-02T08:55:37;2.30;;;0.50;;
52530;SDS011;38441;52.894;6.040;2024-03-02T08:58:03;1.90;;;0.47;;
52530;SDS011;38441;52.894;6.040;2024-03-02T09:00:29;1.85;;;0.68;;
52530;SDS011;38441;52.894;6.040;2024-03-02T09:02:55;1.67;;;0.50;;
52530;SDS011;38441;52.894;6.040;2024-03-02T09:05:20;5.88;;;0.85;;
52530;SDS011;38441;52.894;6.040;2024-03-02T09:07:46;1.08;;;0.43;;
52530;SDS011;38441;52.894;6.040;2024-03-02T09:10:12;2.50;;;0.70;;
52530;SDS011;38441;52.894;6.040;2024-03-02T09:12:40;3.10;;;0.75;;
52530;SDS011;38441;52.894;6.040;2024-03-02T09:15:06;4.22;;;0.52;;
52530;SDS011;38441;52.894;6.040;2024-03-02T09:17:32;3.47;;;0.50;;
52530;SDS011;38441;52.894;6.040;2024-03-02T09:19:58;2.17;;;0.73;;
52530;SDS011;38441;52.894;6.040;2024-03-02T09:22:24;4.10;;;1.20;;
52530;SDS011;38441;52.894;6.040;2024-03-02T09:24:49;4.90;;;1.30;;
52530;SDS011;38441;52.894;6.040;2024-03-02T09:27:15;3.88;;;1.08;;
52530;SDS011;38441;52.894;6.040;2024-03-02T09:29:41;3.58;;;1.00;;
52530;SDS011;38441;52.894;6.040;2024-03-02T09:32:06;1.30;;;0.60;;
52530;SDS011;38441;52.894;6.040;2024-03-02T09:34:33;2.38;;;0.60;;
52530;SDS011;38441;52.894;6.040;2024-03-02T09:36:59;2.83;;;0.60;;
52530;SDS011;38441;52.894;6.040;2024-03-02T09:39:24;2.78;;;0.70;;
52530;SDS011;38441;52.894;6.040;2024-03-02T09:41:50;1.80;;;0.60;;
52530;SDS011;38441;52.894;6.040;2024-03-02T09:44:16;1.67;;;0.50;;
52530;SDS011;38441;52.894;6.040;2024-03-02T09:46:42;2.60;;;0.60;;
52530;SDS011;38441;52.894;6.040;2024-03-02T09:49:09;2.40;;;0.70;;
52530;SDS011;38441;52.894;6.040;2024-03-02T09:51:36;3.38;;;0.73;;
52530;SDS011;38441;52.894;6.040;2024-03-02T09:54:05;1.88;;;0.60;;
52530;SDS011;38441;52.894;6.040;2024-03-02T09:56:33;1.95;;;0.65;;
52530;SDS011;38441;52.894;6.040;2024-03-02T09:58:59;1.83;;;0.60;;
52530;SDS011;38441;52.894;6.040;2024-03-02T10:01:25;3.65;;;1.00;;
52530;SDS011;38441;52.894;6.040;2024-03-02T10:03:50;2.03;;;0.50;;
52530;SDS011;38441;52.894;6.040;2024-03-02T10:06:18;2.78;;;0.80;;
52530;SDS011;38441;52.894;6.040;2024-03-02T10:08:45;4.47;;;0.70;;
52530;SDS011;38441;52.894;6.040;2024-03-02T10:19:18;4.72;;;0.85;;
52530;SDS011;38441;52.894;6.040;2024-03-02T10:21:48;1.55;;;0.63;;
52530;SDS011;38441;52.894;6.040;2024-03-02T10:24:15;1.67;;;0.43;;
52530;SDS011;38441;52.894;6.040;2024-03-02T10:26:42;3.03;;;0.38;;
52530;SDS011;38441;52.894;6.040;2024-03-02T10:29:11;1.02;;;0.30;;
52530;SDS011;38441;52.894;6.040;2024-03-02T10:31:38;2.63;;;0.30;;
52530;SDS011;38441;52.894;6.040;2024-03-02T10:34:05;4.22;;;0.70;;
52530;SDS011;38441;52.894;6.040;2024-03-02T10:36:32;1.98;;;0.40;;
52530;SDS011;38441;52.894;6.040;2024-03-02T10:39:01;2.60;;;0.60;;
52530;SDS011;38441;52.894;6.040;2024-03-02T10:41:34;1.98;;;0.50;;
52530;SDS011;38441;52.894;6.040;2024-03-02T10:44:05;2.63;;;0.50;;
52530;SDS011;38441;52.894;6.040;2024-03-02T10:46:33;3.20;;;0.52;;
52530;SDS011;38441;52.894;6.040;2024-03-02T10:49:00;6.07;;;0.57;;
52530;SDS011;38441;52.894;6.040;2024-03-02T10:51:28;3.35;;;0.50;;
52530;SDS011;38441;52.894;6.040;2024-03-02T10:53:57;3.47;;;0.60;;
52530;SDS011;38441;52.894;6.040;2024-03-02T10:56:33;3.17;;;0.57;;
52530;SDS011;38441;52.894;6.040;2024-03-02T11:01:51;2.05;;;0.52;;
52530;SDS011;38441;52.894;6.040;2024-03-02T11:04:24;1.65;;;0.80;;
52530;SDS011;38441;52.894;6.040;2024-03-02T11:06:51;1.65;;;0.63;;
52530;SDS011;38441;52.894;6.040;2024-03-02T11:09:20;2.67;;;0.43;;
52530;SDS011;38441;52.894;6.040;2024-03-02T11:11:49;3.65;;;0.55;;
52530;SDS011;38441;52.894;6.040;2024-03-02T11:14:37;2.63;;;0.40;;
52530;SDS011;38441;52.894;6.040;2024-03-02T11:17:08;2.70;;;0.50;;
52530;SDS011;38441;52.894;6.040;2024-03-02T11:19:34;4.45;;;0.70;;
52530;SDS011;38441;52.894;6.040;2024-03-02T11:22:02;2.50;;;0.57;;
52530;SDS011;38441;52.894;6.040;2024-03-02T11:24:29;1.35;;;0.40;;
52530;SDS011;38441;52.894;6.040;2024-03-02T11:26:58;3.22;;;0.40;;
52530;SDS011;38441;52.894;6.040;2024-03-02T11:32:06;1.60;;;0.43;;
52530;SDS011;38441;52.894;6.040;2024-03-02T11:34:50;3.75;;;0.80;;
52530;SDS011;38441;52.894;6.040;2024-03-02T11:37:17;1.77;;;0.60;;
52530;SDS011;38441;52.894;6.040;2024-03-02T11:39:44;1.33;;;0.50;;
52530;SDS011;38441;52.894;6.040;2024-03-02T11:42:10;2.05;;;0.50;;
52530;SDS011;38441;52.894;6.040;2024-03-02T11:44:39;1.70;;;0.30;;
52530;SDS011;38441;52.894;6.040;2024-03-02T11:47:16;1.55;;;0.30;;
52530;SDS011;38441;52.894;6.040;2024-03-02T11:49:49;2.22;;;0.30;;
52530;SDS011;38441;52.894;6.040;2024-03-02T11:52:16;1.35;;;0.30;;
52530;SDS011;38441;52.894;6.040;2024-03-02T11:54:44;3.00;;;0.52;;
52530;SDS011;38441;52.894;6.040;2024-03-02T11:57:12;2.42;;;0.40;;
52530;SDS011;38441;52.894;6.040;2024-03-02T11:59:41;2.47;;;0.40;;
52530;SDS011;38441;52.894;6.040;2024-03-02T12:02:12;1.92;;;0.35;;
52530;SDS011;38441;52.894;6.040;2024-03-02T12:04:42;1.90;;;0.30;;
52530;SDS011;38441;52.894;6.040;2024-03-02T12:07:09;3.47;;;0.30;;
52530;SDS011;38441;52.894;6.040;2024-03-02T12:09:36;4.68;;;0.30;;
52530;SDS011;38441;52.894;6.040;2024-03-02T12:14:35;2.30;;;0.40;;
52530;SDS011;38441;52.894;6.040;2024-03-02T12:17:02;2.17;;;0.40;;
52530;SDS011;38441;52.894;6.040;2024-03-02T12:19:29;1.88;;;0.35;;
52530;SDS011;38441;52.894;6.040;2024-03-02T12:21:59;4.93;;;0.50;;
52530;SDS011;38441;52.894;6.040;2024-03-02T12:24:29;1.70;;;0.40;;
52530;SDS011;38441;52.894;6.040;2024-03-02T12:26:58;3.03;;;0.30;;
52530;SDS011;38441;52.894;6.040;2024-03-02T12:29:24;3.58;;;1.20;;
52530;SDS011;38441;52.894;6.040;2024-03-02T12:31:51;3.55;;;0.50;;
52530;SDS011;38441;52.894;6.040;2024-03-02T12:34:17;3.15;;;0.30;;
52530;SDS011;38441;52.894;6.040;2024-03-02T12:36:44;2.30;;;0.40;;
52530;SDS011;38441;52.894;6.040;2024-03-02T12:39:13;1.63;;;0.43;;
52530;SDS011;38441;52.894;6.040;2024-03-02T12:41:39;5.35;;;0.45;;
52530;SDS011;38441;52.894;6.040;2024-03-02T12:44:05;2.35;;;0.43;;
52530;SDS011;38441;52.894;6.040;2024-03-02T12:46:31;2.10;;;0.35;;
52530;SDS011;38441;52.894;6.040;2024-03-02T12:48:58;1.60;;;0.45;;
52530;SDS011;38441;52.894;6.040;2024-03-02T12:51:26;3.47;;;1.08;;
52530;SDS011;38441;52.894;6.040;2024-03-02T12:53:53;3.95;;;0.60;;
52530;SDS011;38441;52.894;6.040;2024-03-02T12:56:20;4.13;;;0.22;;
52530;SDS011;38441;52.894;6.040;2024-03-02T12:58:46;2.15;;;0.50;;
52530;SDS011;38441;52.894;6.040;2024-03-02T13:01:14;2.20;;;0.60;;
52530;SDS011;38441;52.894;6.040;2024-03-02T13:03:43;2.20;;;0.50;;
52530;SDS011;38441;52.894;6.040;2024-03-02T13:06:09;2.13;;;0.45;;
52530;SDS011;38441;52.894;6.040;2024-03-02T13:08:35;2.70;;;0.50;;
52530;SDS011;38441;52.894;6.040;2024-03-02T13:11:01;2.38;;;0.50;;
52530;SDS011;38441;52.894;6.040;2024-03-02T13:13:30;2.60;;;0.38;;
52530;SDS011;38441;52.894;6.040;2024-03-02T13:15:56;1.80;;;0.57;;
52530;SDS011;38441;52.894;6.040;2024-03-02T13:18:22;2.35;;;0.30;;
52530;SDS011;38441;52.894;6.040;2024-03-02T13:20:48;3.60;;;0.30;;
52530;SDS011;38441;52.894;6.040;2024-03-02T13:23:13;1.98;;;0.40;;
52530;SDS011;38441;52.894;6.040;2024-03-02T13:25:39;2.05;;;0.40;;
52530;SDS011;38441;52.894;6.040;2024-03-02T13:28:05;2.33;;;0.50;;
52530;SDS011;38441;52.894;6.040;2024-03-02T13:30:31;2.47;;;0.65;;
52530;SDS011;38441;52.894;6.040;2024-03-02T13:32:57;1.73;;;0.40;;
52530;SDS011;38441;52.894;6.040;2024-03-02T13:35:23;1.02;;;0.40;;
52530;SDS011;38441;52.894;6.040;2024-03-02T13:37:49;2.40;;;0.40;;
52530;SDS011;38441;52.894;6.040;2024-03-02T13:40:15;2.60;;;0.30;;
52530;SDS011;38441;52.894;6.040;2024-03-02T13:42:44;4.78;;;0.55;;
52530;SDS011;38441;52.894;6.040;2024-03-02T13:45:11;2.33;;;0.38;;
52530;SDS011;38441;52.894;6.040;2024-03-02T13:47:40;1.83;;;0.40;;
52530;SDS011;38441;52.894;6.040;2024-03-02T13:50:06;2.65;;;0.63;;
52530;SDS011;38441;52.894;6.040;2024-03-02T13:52:32;5.72;;;0.60;;
52530;SDS011;38441;52.894;6.040;2024-03-02T13:54:58;2.92;;;0.50;;
52530;SDS011;38441;52.894;6.040;2024-03-02T13:57:23;3.55;;;0.50;;
52530;SDS011;38441;52.894;6.040;2024-03-02T13:59:49;2.55;;;0.60;;
52530;SDS011;38441;52.894;6.040;2024-03-02T14:02:17;2.15;;;0.50;;
52530;SDS011;38441;52.894;6.040;2024-03-02T14:04:43;2.45;;;0.68;;
52530;SDS011;38441;52.894;6.040;2024-03-02T14:07:09;3.65;;;0.57;;
52530;SDS011;38441;52.894;6.040;2024-03-02T14:09:37;3.85;;;0.85;;
52530;SDS011;38441;52.894;6.040;2024-03-02T14:12:03;2.55;;;0.63;;
52530;SDS011;38441;52.894;6.040;2024-03-02T14:14:30;1.80;;;0.55;;
52530;SDS011;38441;52.894;6.040;2024-03-02T14:16:59;2.42;;;0.88;;
52530;SDS011;38441;52.894;6.040;2024-03-02T14:19:28;3.00;;;0.95;;
52530;SDS011;38441;52.894;6.040;2024-03-02T14:21:54;2.92;;;0.70;;
52530;SDS011;38441;52.894;6.040;2024-03-02T14:24:20;4.22;;;0.80;;
52530;SDS011;38441;52.894;6.040;2024-03-02T14:26:51;3.63;;;0.90;;
52530;SDS011;38441;52.894;6.040;2024-03-02T14:29:17;1.92;;;0.80;;
52530;SDS011;38441;52.894;6.040;2024-03-02T14:31:43;1.80;;;0.70;;
52530;SDS011;38441;52.894;6.040;2024-03-02T14:34:13;1.60;;;0.70;;
52530;SDS011;38441;52.894;6.040;2024-03-02T14:36:39;2.97;;;0.80;;
52530;SDS011;38441;52.894;6.040;2024-03-02T14:39:11;1.70;;;0.60;;
52530;SDS011;38441;52.894;6.040;2024-03-02T14:41:37;1.83;;;0.98;;
52530;SDS011;38441;52.894;6.040;2024-03-02T14:44:03;6.50;;;1.17;;
52530;SDS011;38441;52.894;6.040;2024-03-02T14:46:28;2.05;;;0.70;;
52530;SDS011;38441;52.894;6.040;2024-03-02T14:48:54;1.98;;;0.80;;
52530;SDS011;38441;52.894;6.040;2024-03-02T14:51:20;1.38;;;0.90;;
52530;SDS011;38441;52.894;6.040;2024-03-02T14:53:46;1.65;;;0.68;;
52530;SDS011;38441;52.894;6.040;2024-03-02T14:56:11;1.67;;;1.00;;
52530;SDS011;38441;52.894;6.040;2024-03-02T14:58:39;2.58;;;1.25;;
52530;SDS011;38441;52.894;6.040;2024-03-02T15:01:04;3.53;;;1.50;;
52530;SDS011;38441;52.894;6.040;2024-03-02T15:03:31;2.53;;;1.20;;
52530;SDS011;38441;52.894;6.040;2024-03-02T15:05:57;3.15;;;1.20;;
52530;SDS011;38441;52.894;6.040;2024-03-02T15:08:23;3.45;;;1.15;;